createdAt,value
2023-01-19T00:01:25.515Z,91302.00
2023-01-19T00:36:23.142Z,91351.00
2023-01-19T00:37:23.082Z,91351.00
2023-01-19T00:38:23.023Z,91353.00
2023-01-19T00:39:23.036Z,91353.00
2023-01-19T00:40:22.904Z,91357.00
2023-01-19T00:41:22.840Z,91355.00
2023-01-19T00:42:22.801Z,91357.00
2023-01-19T00:43:22.726Z,91357.00
2023-01-19T00:44:22.663Z,91357.00
2023-01-19T00:45:22.625Z,91359.00
2023-01-19T00:46:22.557Z,91357.00
2023-01-19T00:47:22.498Z,91359.00
2023-01-19T00:48:22.447Z,91359.00
2023-01-19T00:49:22.376Z,91357.00
2023-01-19T00:50:22.317Z,91359.00
2023-01-19T00:51:22.264Z,91359.00
2023-01-19T00:52:22.220Z,91359.00
2023-01-19T00:53:22.158Z,91361.00
2023-01-19T00:54:22.110Z,91361.00
2023-01-19T00:55:22.045Z,91363.00
2023-01-19T00:56:21.994Z,91366.00
2023-01-19T00:57:21.932Z,91366.00
2023-01-19T00:58:21.932Z,91368.00
2023-01-19T00:59:21.820Z,91368.00
2023-01-19T01:00:21.793Z,91368.00
2023-01-19T01:01:21.795Z,91368.00
2023-01-19T01:02:22.834Z,91370.00
2023-01-19T01:03:21.551Z,91368.00
2023-01-19T01:21:20.116Z,91392.00
2023-01-19T01:22:20.046Z,91394.00
2023-01-19T01:23:19.970Z,91396.00
2023-01-19T01:24:19.997Z,91396.00
2023-01-19T01:25:19.869Z,91398.00
2023-01-19T01:26:19.795Z,91400.00
2023-01-19T01:27:19.747Z,91402.00
2023-01-19T01:28:19.705Z,91402.00
2023-01-19T01:29:19.637Z,91406.00
2023-01-19T01:30:19.582Z,91404.00
2023-01-19T01:31:19.552Z,91408.00
2023-01-19T01:32:19.465Z,91408.00
2023-01-19T01:33:39.935Z,91408.00
2023-01-19T01:34:20.332Z,91404.00
2023-01-19T01:35:19.290Z,91410.00
2023-01-19T01:36:19.173Z,91412.00
2023-01-19T01:37:19.092Z,91412.00
2023-01-19T01:38:19.020Z,91416.00
2023-01-19T01:39:18.935Z,91416.00
2023-01-19T01:40:18.846Z,91416.00
2023-01-19T01:41:20.580Z,91414.00
2023-01-19T01:42:18.746Z,91418.00
2023-01-19T01:43:18.608Z,91421.00
2023-01-19T01:44:18.508Z,91421.00
2023-01-19T01:45:18.426Z,91423.00
2023-01-19T01:46:18.434Z,91421.00
2023-01-19T01:47:18.268Z,91421.00
2023-01-19T01:48:18.193Z,91423.00
2023-01-19T01:49:18.116Z,91418.00
2023-01-19T01:50:18.538Z,91416.00
2023-01-19T01:51:17.939Z,91416.00
2023-01-19T01:52:17.856Z,91416.00
2023-01-19T01:53:17.777Z,91418.00
2023-01-19T01:54:17.718Z,91419.00
2023-01-19T01:55:17.622Z,91419.00
2023-01-19T01:56:17.539Z,91419.00
2023-01-19T01:57:17.523Z,91421.00
2023-01-19T01:58:17.436Z,91425.00
2023-01-19T01:59:17.296Z,91427.00
2023-01-19T02:00:17.215Z,91425.00
2023-01-19T02:01:17.249Z,91425.00
2023-01-19T02:02:17.092Z,91423.00
2023-01-19T02:03:16.977Z,91421.00
2023-01-19T02:04:16.881Z,91423.00
2023-01-19T02:05:16.813Z,91421.00
2023-01-19T02:06:16.717Z,91421.00
2023-01-19T02:07:16.638Z,91419.00
2023-01-19T02:08:16.561Z,91418.00
2023-01-19T02:09:16.470Z,91419.00
2023-01-19T02:10:16.389Z,91416.00
2023-01-19T02:11:16.306Z,91414.00
2023-01-19T02:12:16.234Z,91416.00
2023-01-19T02:13:16.157Z,91416.00
2023-01-19T02:14:16.068Z,91416.00
2023-01-19T02:15:15.995Z,91414.00
2023-01-19T02:16:15.971Z,91419.00
2023-01-19T02:17:16.545Z,91419.00
2023-01-19T02:18:15.754Z,91418.00
2023-01-19T02:19:15.658Z,91414.00
2023-01-19T02:20:15.581Z,91414.00
2023-01-19T02:31:15.636Z,91435.00
2023-01-19T03:17:10.753Z,91470.00
2023-01-19T03:18:10.666Z,91470.00
2023-01-19T03:19:10.575Z,91468.00
2023-01-19T03:20:10.509Z,91468.00
2023-01-19T03:21:10.412Z,91468.00
2023-01-19T03:22:10.357Z,91472.00
2023-01-19T03:23:10.243Z,91474.00
2023-01-19T03:24:10.158Z,91474.00
2023-01-19T03:25:10.077Z,91480.00
2023-01-19T03:26:09.990Z,91480.00
2023-01-19T03:27:09.914Z,91482.00
2023-01-19T03:28:09.816Z,91486.00
2023-01-19T03:29:09.746Z,91484.00
2023-01-19T03:30:09.654Z,91486.00
2023-01-19T03:31:09.674Z,91488.00
2023-01-19T03:32:09.476Z,91490.00
2023-01-19T03:33:09.419Z,91486.00
2023-01-19T03:34:09.333Z,91486.00
2023-01-19T03:35:09.267Z,91486.00
2023-01-19T03:36:09.235Z,91488.00
2023-01-19T03:37:09.173Z,91488.00
2023-01-19T03:38:09.116Z,91488.00
2023-01-19T03:39:09.056Z,91492.00
2023-01-19T03:40:09.013Z,91490.00
2023-01-19T03:41:08.948Z,91490.00
2023-01-19T03:42:08.904Z,91490.00
2023-01-19T03:43:08.844Z,91488.00
2023-01-19T03:44:08.804Z,91490.00
2023-01-19T03:45:08.735Z,91490.00
2023-01-19T03:46:08.699Z,91488.00
2023-01-19T03:47:08.596Z,91490.00
2023-01-19T03:48:08.559Z,91490.00
2023-01-19T03:49:08.495Z,91488.00
2023-01-19T03:50:08.468Z,91488.00
2023-01-19T03:51:09.160Z,91490.00
2023-01-19T03:52:08.367Z,91488.00
2023-01-19T03:53:08.307Z,91488.00
2023-01-19T03:54:09.085Z,91486.00
2023-01-19T03:55:08.228Z,91488.00
2023-01-19T03:56:08.179Z,91486.00
2023-01-19T03:57:08.116Z,91486.00
2023-01-19T03:58:08.065Z,91486.00
2023-01-19T03:59:08.062Z,91484.00
2023-01-19T04:00:07.961Z,91482.00
2023-01-19T04:01:08.003Z,91484.00
2023-01-19T04:02:07.945Z,91484.00
2023-01-19T04:03:07.889Z,91484.00
2023-01-19T04:04:07.808Z,91490.00
2023-01-19T04:05:07.794Z,91490.00
2023-01-19T04:06:07.768Z,91492.00
2023-01-19T04:07:07.695Z,91496.00
2023-01-19T04:08:08.588Z,91496.00
2023-01-19T04:09:07.634Z,91496.00
2023-01-19T04:10:07.572Z,91498.00
2023-01-19T04:11:07.535Z,91500.00
2023-01-19T04:12:07.563Z,91502.00
2023-01-19T04:13:07.447Z,91500.00
2023-01-19T04:14:07.419Z,91500.00
2023-01-19T04:15:07.379Z,91502.00
2023-01-19T04:16:07.442Z,91500.00
2023-01-19T04:17:07.278Z,91504.00
2023-01-19T04:18:07.257Z,91500.00
2023-01-19T04:19:07.193Z,91502.00
2023-01-19T04:20:07.164Z,91500.00
2023-01-19T04:21:07.150Z,91502.00
2023-01-19T04:22:07.093Z,91500.00
2023-01-19T04:23:07.040Z,91500.00
2023-01-19T04:24:06.980Z,91500.00
2023-01-19T04:25:06.958Z,91506.00
2023-01-19T04:26:06.969Z,91504.00
2023-01-19T04:27:07.592Z,91508.00
2023-01-19T04:28:06.806Z,91504.00
2023-01-19T04:29:06.726Z,91502.00
2023-01-19T04:30:06.671Z,91500.00
2023-01-19T04:31:06.676Z,91500.00
2023-01-19T04:32:06.703Z,91500.00
2023-01-19T04:33:06.537Z,91502.00
2023-01-19T04:34:06.508Z,91502.00
2023-01-19T04:35:06.457Z,91502.00
2023-01-19T04:36:06.406Z,91504.00
2023-01-19T04:37:06.346Z,91506.00
2023-01-19T04:38:06.301Z,91506.00
2023-01-19T04:39:06.271Z,91506.00
2023-01-19T04:40:06.251Z,91508.00
2023-01-19T04:41:06.211Z,91508.00
2023-01-19T04:42:06.178Z,91512.00
2023-01-19T04:43:06.117Z,91512.00
2023-01-19T04:44:06.057Z,91512.00
2023-01-19T04:45:06.013Z,91514.00
2023-01-19T04:46:06.024Z,91514.00
2023-01-19T04:47:05.922Z,91514.00
2023-01-19T04:48:05.882Z,91514.00
2023-01-19T04:49:05.826Z,91514.00
2023-01-19T04:50:05.768Z,91514.00
2023-01-19T04:51:05.717Z,91514.00
2023-01-19T04:52:05.647Z,91514.00
2023-01-19T04:53:05.587Z,91518.00
2023-01-19T04:54:05.518Z,91520.00
2023-01-19T05:03:06.093Z,91521.00
2023-01-19T06:09:02.306Z,91572.00
2023-01-19T06:10:02.248Z,91572.00
2023-01-19T06:11:02.219Z,91574.00
2023-01-19T06:12:02.164Z,91576.00
2023-01-19T06:13:02.535Z,91578.00
2023-01-19T06:14:02.083Z,91580.00
2023-01-19T06:15:02.025Z,91580.00
2023-01-19T06:16:02.005Z,91580.00
2023-01-19T06:17:01.928Z,91584.00
2023-01-19T06:18:01.849Z,91584.00
2023-01-19T06:19:01.782Z,91584.00
2023-01-19T06:20:01.717Z,91582.00
2023-01-19T06:21:01.660Z,91582.00
2023-01-19T06:22:01.608Z,91584.00
2023-01-19T06:23:01.956Z,91588.00
2023-01-19T06:24:01.546Z,91586.00
2023-01-19T06:25:01.466Z,91588.00
2023-01-19T06:26:01.355Z,91594.00
2023-01-19T06:27:01.283Z,91594.00
2023-01-19T06:28:01.216Z,91600.00
2023-01-19T06:34:00.949Z,91607.00
2023-01-19T06:35:00.921Z,91604.00
2023-01-19T06:36:00.887Z,91607.00
2023-01-19T06:37:00.862Z,91607.00
2023-01-19T06:39:00.784Z,91607.00
2023-01-19T06:40:00.743Z,91605.00
2023-01-19T06:41:00.690Z,91609.00
2023-01-19T06:42:00.639Z,91613.00
2023-01-19T06:48:00.280Z,91613.00
2023-01-19T07:19:57.706Z,91639.00
2023-01-19T07:20:57.597Z,91641.00
2023-01-19T07:21:57.510Z,91641.00
2023-01-19T07:22:57.456Z,91637.00
2023-01-19T07:23:57.403Z,91637.00
2023-01-19T07:24:58.338Z,91641.00
2023-01-19T07:26:57.316Z,91643.00
2023-01-19T07:27:57.228Z,91643.00
2023-01-19T07:28:57.219Z,91643.00
2023-01-19T07:29:57.708Z,91645.00
2023-01-19T07:30:57.236Z,91647.00
2023-01-19T07:31:57.028Z,91649.00
2023-01-19T07:32:58.548Z,91649.00
2023-01-19T07:33:56.834Z,91652.00
2023-01-19T07:34:56.751Z,91652.00
2023-01-19T07:35:56.629Z,91651.00
2023-01-19T07:36:56.545Z,91656.00
2023-01-19T07:37:56.600Z,91654.00
2023-01-19T07:38:56.416Z,91656.00
2023-01-19T07:39:56.285Z,91658.00
2023-01-19T07:40:56.148Z,91658.00
2023-01-19T07:41:56.026Z,91656.00
2023-01-19T07:42:56.003Z,91654.00
2023-01-19T07:43:56.169Z,91656.00
2023-01-19T07:44:55.717Z,91658.00
2023-01-19T07:45:55.632Z,91664.00
2023-01-19T07:46:55.505Z,91660.00
2023-01-19T07:47:55.405Z,91666.00
2023-01-19T07:48:55.303Z,91664.00
2023-01-19T07:49:55.198Z,91666.00
2023-01-19T07:50:55.155Z,91666.00
2023-01-19T07:51:55.085Z,91666.00
2023-01-19T07:52:55.063Z,91668.00
2023-01-19T07:53:55.038Z,91666.00
2023-01-19T07:54:55.041Z,91668.00
2023-01-19T07:55:54.995Z,91670.00
2023-01-19T07:56:54.986Z,91672.00
2023-01-19T07:57:54.920Z,91672.00
2023-01-19T07:58:55.627Z,91674.00
2023-01-19T07:59:54.829Z,91672.00
2023-01-19T08:00:54.867Z,91670.00
2023-01-19T08:01:54.772Z,91672.00
2023-01-19T08:02:54.564Z,91672.00
2023-01-19T08:03:54.464Z,91668.00
2023-01-19T08:04:54.436Z,91672.00
2023-01-19T08:05:54.298Z,91674.00
2023-01-19T08:06:54.196Z,91674.00
2023-01-19T08:07:54.285Z,91676.00
2023-01-19T08:08:54.176Z,91676.00
2023-01-19T08:09:53.929Z,91676.00
2023-01-19T08:10:53.830Z,91676.00
2023-01-19T08:11:53.738Z,91676.00
2023-01-19T08:12:53.666Z,91674.00
2023-01-19T08:13:53.594Z,91676.00
2023-01-19T08:14:53.584Z,91672.00
2023-01-19T08:15:53.605Z,91674.00
2023-01-19T08:16:53.412Z,91676.00
2023-01-19T08:17:53.332Z,91676.00
2023-01-19T08:18:53.237Z,91686.00
2023-01-19T08:19:53.671Z,91684.00
2023-01-19T08:20:53.055Z,91690.00
2023-01-19T08:21:53.021Z,91692.00
2023-01-19T08:22:52.919Z,91692.00
2023-01-19T08:23:52.862Z,91692.00
2023-01-19T08:24:52.917Z,91692.00
2023-01-19T08:25:52.667Z,91694.00
2023-01-19T08:26:52.562Z,91694.00
2023-01-19T08:27:52.557Z,91694.00
2023-01-19T08:28:52.439Z,91692.00
2023-01-19T08:29:52.388Z,91688.00
2023-01-19T08:30:52.507Z,91690.00
2023-01-19T08:31:52.430Z,91692.00
2023-01-19T08:32:52.288Z,91694.00
2023-01-19T08:33:52.240Z,91694.00
2023-01-19T08:34:52.189Z,91694.00
2023-01-19T08:35:52.146Z,91690.00
2023-01-19T08:36:52.100Z,91688.00
2023-01-19T08:37:52.074Z,91688.00
2023-01-19T08:38:52.030Z,91688.00
2023-01-19T08:39:52.051Z,91692.00
2023-01-19T08:40:51.935Z,91688.00
2023-01-19T08:41:51.889Z,91690.00
2023-01-19T08:42:51.850Z,91686.00
2023-01-19T08:43:51.805Z,91686.00
2023-01-19T08:44:58.161Z,91688.00
2023-01-19T08:45:52.645Z,91690.00
2023-01-19T08:46:51.535Z,91692.00
2023-01-19T08:47:52.177Z,91694.00
2023-01-19T08:48:51.323Z,91696.00
2023-01-19T08:49:51.218Z,91700.00
2023-01-19T08:50:51.100Z,91704.00
2023-01-19T08:51:50.987Z,91706.00
2023-01-19T08:52:50.873Z,91707.00
2023-01-19T08:53:50.852Z,91713.00
2023-01-19T08:54:50.678Z,91715.00
2023-01-19T08:55:50.567Z,91711.00
2023-01-19T08:56:50.476Z,91709.00
2023-01-19T08:57:50.354Z,91709.00
2023-01-19T08:59:03.515Z,91709.00
2023-01-19T08:59:51.147Z,91711.00
2023-01-19T09:00:50.068Z,91713.00
2023-01-19T09:01:50.062Z,91715.00
2023-01-19T09:02:49.874Z,91717.00
2023-01-19T09:03:49.719Z,91719.00
2023-01-19T09:04:49.632Z,91719.00
2023-01-19T09:05:49.508Z,91719.00
2023-01-19T09:06:49.427Z,91713.00
2023-01-19T09:07:49.304Z,91717.00
2023-01-19T09:08:50.194Z,91717.00
2023-01-19T09:09:49.210Z,91719.00
2023-01-19T09:10:49.009Z,91721.00
2023-01-19T09:11:49.047Z,91721.00
2023-01-19T09:12:48.812Z,91727.00
2023-01-19T09:13:48.769Z,91721.00
2023-01-19T09:14:48.626Z,91723.00
2023-01-19T09:15:48.559Z,91721.00
2023-01-19T09:16:48.406Z,91723.00
2023-01-19T09:17:48.311Z,91721.00
2023-01-19T09:18:48.216Z,91721.00
2023-01-19T09:19:48.136Z,91719.00
2023-01-19T09:20:48.057Z,91719.00
2023-01-19T09:21:48.000Z,91717.00
2023-01-19T09:22:47.932Z,91713.00
2023-01-19T09:23:47.871Z,91721.00
2023-01-19T09:24:47.808Z,91719.00
2023-01-19T09:25:47.758Z,91721.00
2023-01-19T09:26:47.722Z,91727.00
2023-01-19T09:27:47.663Z,91725.00
2023-01-19T09:28:47.640Z,91723.00
2023-01-19T09:29:47.502Z,91723.00
2023-01-19T09:30:48.153Z,91727.00
2023-01-19T09:31:47.335Z,91725.00
2023-01-19T09:32:47.707Z,91725.00
2023-01-19T09:33:47.107Z,91723.00
2023-01-19T09:34:47.093Z,91725.00
2023-01-19T09:35:46.950Z,91727.00
2023-01-19T09:36:46.805Z,91725.00
2023-01-19T09:37:46.716Z,91729.00
2023-01-19T09:38:46.607Z,91725.00
2023-01-19T09:39:46.572Z,91723.00
2023-01-19T09:40:46.435Z,91723.00
2023-01-19T09:41:47.180Z,91723.00
2023-01-19T09:42:46.302Z,91725.00
2023-01-19T09:43:46.710Z,91723.00
2023-01-19T09:44:46.136Z,91721.00
2023-01-19T09:45:46.084Z,91721.00
2023-01-19T09:46:46.693Z,91719.00
2023-01-19T09:47:45.988Z,91717.00
2023-01-19T09:48:45.996Z,91719.00
2023-01-19T09:49:45.918Z,91717.00
2023-01-19T09:50:45.857Z,91717.00
2023-01-19T09:51:46.631Z,91713.00
2023-01-19T09:52:45.793Z,91717.00
2023-01-19T09:53:45.735Z,91713.00
2023-01-19T09:54:46.270Z,91717.00
2023-01-19T09:55:45.669Z,91717.00
2023-01-19T09:56:45.626Z,91717.00
2023-01-19T09:57:45.659Z,91723.00
2023-01-19T09:58:46.209Z,91721.00
2023-01-19T10:00:45.563Z,91719.00
2023-01-19T10:04:46.212Z,91719.00
2023-01-19T10:08:45.749Z,91717.00
2023-01-19T10:11:52.744Z,91719.00
2023-01-19T10:12:45.755Z,91721.00
2023-01-19T10:13:44.647Z,91721.00
2023-01-19T10:14:44.555Z,91721.00
2023-01-19T10:15:44.440Z,91715.00
2023-01-19T10:16:44.337Z,91715.00
2023-01-19T10:17:44.211Z,91717.00
2023-01-19T10:18:44.161Z,91721.00
2023-01-19T10:19:46.481Z,91721.00
2023-01-19T10:20:44.213Z,91725.00
2023-01-19T10:21:44.125Z,91723.00
2023-01-19T10:22:44.069Z,91723.00
2023-01-19T10:23:44.015Z,91725.00
2023-01-19T10:24:43.977Z,91725.00
2023-01-19T10:25:43.961Z,91729.00
2023-01-19T10:26:43.852Z,91725.00
2023-01-19T10:27:44.714Z,91727.00
2023-01-19T10:28:43.680Z,91731.00
2023-01-19T10:29:43.589Z,91729.00
2023-01-19T10:30:43.764Z,91729.00
2023-01-19T10:31:43.435Z,91731.00
2023-01-19T10:32:43.317Z,91733.00
2023-01-19T10:33:43.241Z,91733.00
2023-01-19T10:34:43.286Z,91735.00
2023-01-19T10:35:43.096Z,91733.00
2023-01-19T10:36:43.012Z,91733.00
2023-01-19T10:37:42.930Z,91733.00
2023-01-19T10:38:42.888Z,91733.00
2023-01-19T10:39:42.782Z,91731.00
2023-01-19T10:40:42.766Z,91735.00
2023-01-19T10:41:42.659Z,91731.00
2023-01-19T10:42:42.621Z,91729.00
2023-01-19T10:43:42.506Z,91731.00
2023-01-19T10:44:42.453Z,91727.00
2023-01-19T10:45:42.396Z,91729.00
2023-01-19T10:46:42.319Z,91731.00
2023-01-19T10:47:42.317Z,91729.00
2023-01-19T10:48:42.293Z,91731.00
2023-01-19T10:49:42.122Z,91735.00
2023-01-19T10:50:42.152Z,91731.00
2023-01-19T10:51:42.046Z,91727.00
2023-01-19T10:52:41.990Z,91725.00
2023-01-19T10:53:41.879Z,91725.00
2023-01-19T10:54:42.298Z,91723.00
2023-01-19T10:55:41.753Z,91723.00
2023-01-19T10:56:41.697Z,91721.00
2023-01-19T10:57:41.693Z,91719.00
2023-01-19T10:58:41.607Z,91721.00
2023-01-19T10:59:41.765Z,91721.00
2023-01-19T11:00:41.530Z,91723.00
2023-01-19T11:01:41.560Z,91721.00
2023-01-19T11:02:41.482Z,91725.00
2023-01-19T11:03:41.318Z,91723.00
2023-01-19T11:04:41.334Z,91725.00
2023-01-19T11:05:41.208Z,91723.00
2023-01-19T11:06:41.157Z,91723.00
2023-01-19T11:07:41.139Z,91723.00
2023-01-19T11:08:41.050Z,91721.00
2023-01-19T11:09:40.981Z,91719.00
2023-01-19T11:10:40.911Z,91717.00
2023-01-19T11:11:40.857Z,91719.00
2023-01-19T11:12:40.793Z,91715.00
2023-01-19T11:13:40.776Z,91713.00
2023-01-19T11:14:40.687Z,91713.00
2023-01-19T11:15:40.628Z,91713.00
2023-01-19T11:16:40.600Z,91711.00
2023-01-19T11:17:40.512Z,91711.00
2023-01-19T11:18:40.479Z,91709.00
2023-01-19T11:19:40.403Z,91709.00
2023-01-19T11:20:40.345Z,91706.00
2023-01-19T11:21:40.299Z,91707.00
2023-01-19T11:22:40.235Z,91707.00
2023-01-19T11:23:40.173Z,91707.00
2023-01-19T11:24:40.120Z,91707.00
2023-01-19T11:25:40.053Z,91707.00
2023-01-19T11:26:40.023Z,91706.00
2023-01-19T11:27:39.976Z,91706.00
2023-01-19T11:28:39.980Z,91706.00
2023-01-19T11:29:39.897Z,91706.00
2023-01-19T11:30:39.934Z,91706.00
2023-01-19T11:31:39.822Z,91706.00
2023-01-19T11:32:39.714Z,91704.00
2023-01-19T11:33:39.679Z,91706.00
2023-01-19T11:34:39.614Z,91704.00
2023-01-19T11:35:39.601Z,91704.00
2023-01-19T11:36:39.528Z,91706.00
2023-01-19T11:37:39.462Z,91702.00
2023-01-19T11:38:39.416Z,91702.00
2023-01-19T11:39:39.371Z,91702.00
2023-01-19T11:40:39.327Z,91702.00
2023-01-19T11:41:39.282Z,91704.00
2023-01-19T11:42:39.233Z,91704.00
2023-01-19T11:43:48.751Z,91702.00
2023-01-19T11:44:40.095Z,91702.00
2023-01-19T11:45:39.025Z,91702.00
2023-01-19T11:46:38.907Z,91702.00
2023-01-19T11:47:38.802Z,91702.00
2023-01-19T11:48:38.711Z,91704.00
2023-01-19T11:49:39.255Z,91704.00
2023-01-19T11:50:38.528Z,91706.00
2023-01-19T11:51:38.450Z,91706.00
2023-01-19T11:52:38.330Z,91706.00
2023-01-19T11:53:38.745Z,91704.00
2023-01-19T11:54:39.133Z,91706.00
2023-01-19T11:55:38.220Z,91704.00
2023-01-19T11:56:38.053Z,91706.00
2023-01-19T11:57:37.936Z,91702.00
2023-01-19T11:58:37.873Z,91702.00
2023-01-19T11:59:37.813Z,91702.00
2023-01-19T12:00:37.753Z,91702.00
2023-01-19T12:01:37.734Z,91702.00
2023-01-19T12:02:37.644Z,91700.00
2023-01-19T12:03:37.635Z,91704.00
2023-01-19T12:04:37.557Z,91704.00
2023-01-19T12:05:37.500Z,91706.00
2023-01-19T12:06:37.443Z,91704.00
2023-01-19T12:07:37.485Z,91704.00
2023-01-19T12:08:37.353Z,91707.00
2023-01-19T12:09:37.284Z,91707.00
2023-01-19T12:10:37.238Z,91707.00
2023-01-19T12:11:37.197Z,91706.00
2023-01-19T12:12:37.199Z,91709.00
2023-01-19T12:13:37.079Z,91709.00
2023-01-19T12:14:37.039Z,91707.00
2023-01-19T12:15:36.990Z,91709.00
2023-01-19T12:16:36.953Z,91709.00
2023-01-19T12:17:36.900Z,91707.00
2023-01-19T12:18:36.861Z,91707.00
2023-01-19T12:19:36.803Z,91706.00
2023-01-19T12:20:36.753Z,91706.00
2023-01-19T12:21:36.785Z,91707.00
2023-01-19T12:22:36.665Z,91707.00
2023-01-19T12:23:36.614Z,91707.00
2023-01-19T12:24:36.653Z,91706.00
2023-01-19T12:25:36.528Z,91706.00
2023-01-19T12:26:37.332Z,91707.00
2023-01-19T12:27:36.446Z,91707.00
2023-01-19T12:28:36.394Z,91707.00
2023-01-19T12:29:36.348Z,91704.00
2023-01-19T12:30:36.436Z,91706.00
2023-01-19T12:31:36.340Z,91704.00
2023-01-19T12:32:36.228Z,91702.00
2023-01-19T12:33:36.184Z,91702.00
2023-01-19T12:34:36.219Z,91698.00
2023-01-19T12:35:36.088Z,91698.00
2023-01-19T12:36:36.052Z,91696.00
2023-01-19T12:37:36.029Z,91698.00
2023-01-19T12:38:35.987Z,91698.00
2023-01-19T12:39:35.984Z,91698.00
2023-01-19T12:40:35.894Z,91698.00
2023-01-19T12:41:35.859Z,91696.00
2023-01-19T12:42:35.828Z,91698.00
2023-01-19T12:43:35.788Z,91694.00
2023-01-19T12:44:35.744Z,91696.00
2023-01-19T12:45:35.710Z,91696.00
2023-01-19T12:46:35.662Z,91696.00
2023-01-19T12:47:35.638Z,91694.00
2023-01-19T12:48:35.604Z,91694.00
2023-01-19T12:49:35.574Z,91694.00
2023-01-19T12:50:35.540Z,91696.00
2023-01-19T13:17:34.466Z,91686.00
2023-01-19T13:18:34.318Z,91688.00
2023-01-19T13:19:34.243Z,91684.00
2023-01-19T13:20:34.160Z,91684.00
2023-01-19T13:21:34.084Z,91684.00
2023-01-19T13:22:33.994Z,91686.00
2023-01-19T13:23:33.899Z,91690.00
2023-01-19T13:24:33.816Z,91686.00
2023-01-19T13:26:33.622Z,91692.00
2023-01-19T13:28:33.511Z,91690.00
2023-01-19T13:29:33.343Z,91690.00
2023-01-19T13:30:33.243Z,91692.00
2023-01-19T13:31:33.202Z,91696.00
2023-01-19T13:32:33.070Z,91696.00
2023-01-19T13:33:32.961Z,91696.00
2023-01-19T13:34:32.861Z,91694.00
2023-01-19T13:35:32.755Z,91698.00
2023-01-19T13:36:32.663Z,91696.00
2023-01-19T13:37:33.208Z,91698.00
2023-01-19T13:38:32.465Z,91700.00
2023-01-19T13:39:32.384Z,91696.00
2023-01-19T13:41:32.227Z,91700.00
2023-01-19T13:42:32.137Z,91698.00
2023-01-19T13:43:32.047Z,91700.00
2023-01-19T13:44:31.931Z,91698.00
2023-01-19T13:45:31.841Z,91700.00
2023-01-19T13:46:31.805Z,91700.00
2023-01-19T13:47:31.634Z,91700.00
2023-01-19T13:48:31.529Z,91700.00
2023-01-19T13:49:31.452Z,91698.00
2023-01-19T13:50:31.373Z,91698.00
2023-01-19T13:51:31.322Z,91700.00
2023-01-19T13:52:31.489Z,91698.00
2023-01-19T13:53:31.221Z,91700.00
2023-01-19T13:54:31.180Z,91700.00
2023-01-19T13:55:31.179Z,91709.00
2023-01-19T13:56:31.009Z,91702.00
2023-01-19T13:57:30.922Z,91694.00
2023-01-19T13:58:30.811Z,91704.00
2023-01-19T13:59:30.798Z,91704.00
2023-01-19T14:00:30.624Z,91706.00
2023-01-19T14:01:30.667Z,91706.00
2023-01-19T14:02:30.682Z,91704.00
2023-01-19T14:03:30.388Z,91707.00
2023-01-19T14:04:30.294Z,91707.00
2023-01-19T14:05:30.181Z,91709.00
2023-01-19T14:06:30.116Z,91707.00
2023-01-19T14:07:30.098Z,91709.00
2023-01-19T14:08:30.019Z,91707.00
2023-01-19T14:09:29.937Z,91709.00
2023-01-19T14:10:29.872Z,91709.00
2023-01-19T14:11:29.841Z,91709.00
2023-01-19T14:12:29.797Z,91711.00
2023-01-19T14:13:29.814Z,91713.00
2023-01-19T14:14:29.614Z,91711.00
2023-01-19T14:15:29.545Z,91711.00
2023-01-19T14:16:29.544Z,91713.00
2023-01-19T14:17:29.419Z,91704.00
2023-01-19T14:18:29.347Z,91715.00
2023-01-19T14:19:29.369Z,91717.00
2023-01-19T14:20:29.283Z,91719.00
2023-01-19T14:21:29.206Z,91719.00
2023-01-19T14:22:29.127Z,91719.00
2023-01-19T14:23:29.056Z,91721.00
2023-01-19T14:24:29.003Z,91719.00
2023-01-19T14:25:28.963Z,91719.00
2023-01-19T14:26:28.861Z,91719.00
2023-01-19T14:27:28.817Z,91721.00
2023-01-19T14:28:28.753Z,91723.00
2023-01-19T14:29:28.968Z,91721.00
2023-01-19T14:30:28.646Z,91723.00
2023-01-19T14:31:28.625Z,91723.00
2023-01-19T14:32:28.557Z,91727.00
2023-01-19T14:33:28.428Z,91727.00
2023-01-19T14:34:28.359Z,91727.00
2023-01-19T14:35:28.405Z,91727.00
2023-01-19T14:36:28.228Z,91731.00
2023-01-19T14:37:28.171Z,91729.00
2023-01-19T14:38:28.124Z,91729.00
2023-01-19T14:39:28.074Z,91733.00
2023-01-19T14:40:27.989Z,91731.00
2023-01-19T14:41:27.929Z,91733.00
2023-01-19T14:42:27.933Z,91735.00
2023-01-19T14:43:27.832Z,91735.00
2023-01-19T14:44:27.759Z,91733.00
2023-01-19T14:45:27.735Z,91735.00
2023-01-19T14:46:27.736Z,91735.00
2023-01-19T14:47:27.663Z,91735.00
2023-01-19T14:48:27.573Z,91737.00
2023-01-19T14:49:27.495Z,91737.00
2023-01-19T14:50:27.404Z,91739.00
2023-01-19T14:51:27.341Z,91739.00
2023-01-19T14:52:27.226Z,91739.00
2023-01-19T14:53:27.225Z,91739.00
2023-01-19T14:54:26.996Z,91739.00
2023-01-19T14:55:26.880Z,91741.00
2023-01-19T14:56:26.784Z,91741.00
2023-01-19T14:57:26.681Z,91743.00
2023-01-19T14:58:26.593Z,91743.00
2023-01-19T14:59:26.517Z,91747.00
2023-01-19T15:00:26.400Z,91749.00
2023-01-19T15:01:26.394Z,91754.00
2023-01-19T15:02:26.283Z,91753.00
2023-01-19T15:03:35.048Z,91756.00
2023-01-19T15:04:27.085Z,91751.00
2023-01-19T15:05:25.925Z,91753.00
2023-01-19T15:06:25.814Z,91754.00
2023-01-19T15:07:25.707Z,91754.00
2023-01-19T15:08:25.623Z,91754.00
2023-01-19T15:09:25.516Z,91756.00
2023-01-19T16:09:22.832Z,91786.00
2023-01-19T16:10:22.795Z,91784.00
2023-01-19T16:11:22.759Z,91786.00
2023-01-19T16:12:22.751Z,91784.00
2023-01-19T16:13:22.693Z,91786.00
2023-01-19T16:14:22.640Z,91784.00
2023-01-19T16:15:22.675Z,91784.00
2023-01-19T16:16:22.605Z,91784.00
2023-01-19T16:17:22.548Z,91786.00
2023-01-19T16:18:22.595Z,91788.00
2023-01-19T16:19:22.479Z,91788.00
2023-01-19T16:20:22.433Z,91788.00
2023-01-19T16:21:22.403Z,91786.00
2023-01-19T16:22:22.373Z,91790.00
2023-01-19T16:23:22.317Z,91784.00
2023-01-19T16:24:22.285Z,91786.00
2023-01-19T16:25:22.235Z,91786.00
2023-01-19T16:26:22.201Z,91786.00
2023-01-19T16:27:22.160Z,91786.00
2023-01-19T16:28:22.129Z,91784.00
2023-01-19T16:29:22.132Z,91784.00
2023-01-19T16:30:22.109Z,91790.00
2023-01-19T16:31:22.134Z,91788.00
2023-01-19T16:32:21.974Z,91790.00
2023-01-19T16:33:21.928Z,91788.00
2023-01-19T16:34:21.900Z,91788.00
2023-01-19T16:35:21.850Z,91790.00
2023-01-19T16:36:21.848Z,91790.00
2023-01-19T16:37:21.799Z,91790.00
2023-01-19T16:38:21.783Z,91792.00
2023-01-19T16:39:21.720Z,91790.00
2023-01-19T16:40:21.684Z,91792.00
2023-01-19T16:41:21.653Z,91792.00
2023-01-19T16:42:21.622Z,91788.00
2023-01-19T16:43:21.607Z,91788.00
2023-01-19T16:44:21.571Z,91788.00
2023-01-19T16:45:21.536Z,91788.00
2023-01-19T16:46:21.516Z,91786.00
2023-01-19T16:47:21.465Z,91788.00
2023-01-19T16:48:22.359Z,91788.00
2023-01-19T16:49:21.423Z,91788.00
2023-01-19T16:50:21.375Z,91790.00
2023-01-19T16:51:21.341Z,91788.00
2023-01-19T16:52:21.303Z,91792.00
2023-01-19T16:53:21.283Z,91788.00
2023-01-19T16:54:21.238Z,91788.00
2023-01-19T16:55:21.183Z,91788.00
2023-01-19T16:56:21.172Z,91790.00
2023-01-19T16:57:21.132Z,91792.00
2023-01-19T16:58:21.076Z,91788.00
2023-01-19T16:59:21.028Z,91790.00
2023-01-19T17:00:20.989Z,91788.00
2023-01-19T17:01:20.996Z,91788.00
2023-01-19T17:02:20.938Z,91788.00
2023-01-19T17:03:20.828Z,91790.00